Time;durP1;ratioP1;P1;durP2;ratioP2;P2;SDS_P1;SDS_P2;PMS_P1;PMS_P2;Temp;Humidity;BMP_temperature;BMP_pressure;BME280_temperature;BME280_humidity;BME280_pressure;Samples;Min_cycle;Max_cycle;Signal;HPM_P1;HPM_P2
2023/04/05 00:00:29;;;;;;;10.27;6.40;;;2.80;99.90;;;;;;6069811;23;93031;-76
2023/04/05 00:02:58;;;;;;;11.15;6.93;;;2.80;99.90;;;;;;6068989;23;91696;-76
2023/04/05 00:05:30;;;;;;;9.55;5.78;;;2.70;99.90;;;;;;6094885;23;92940;-76
2023/04/05 00:07:59;;;;;;;10.20;5.68;;;2.70;99.90;;;;;;6094700;23;96297;-76
2023/04/05 00:10:27;;;;;;;11.00;6.10;;;2.70;99.90;;;;;;6067568;23;95478;-76
2023/04/05 00:12:54;;;;;;;9.70;5.93;;;2.70;99.90;;;;;;6068571;23;92526;-76
2023/04/05 00:15:22;;;;;;;13.52;6.47;;;2.70;99.90;;;;;;6068514;23;95930;-76
2023/04/05 00:17:49;;;;;;;8.55;5.88;;;2.60;99.90;;;;;;6094586;23;92928;-76
2023/04/05 00:20:16;;;;;;;9.90;6.57;;;2.60;99.90;;;;;;6069279;23;92512;-76
2023/04/05 00:22:43;;;;;;;11.77;6.72;;;2.60;99.90;;;;;;6095222;23;92470;-76
2023/04/05 00:25:11;;;;;;;9.02;6.13;;;2.60;99.90;;;;;;6094870;23;93425;-76
2023/04/05 00:27:42;;;;;;;10.40;6.55;;;2.60;99.90;;;;;;6068964;23;95673;-76
2023/04/05 00:30:10;;;;;;;11.35;6.32;;;2.50;99.90;;;;;;6070061;23;92397;-76
2023/04/05 00:32:36;;;;;;;11.57;6.63;;;2.50;99.90;;;;;;6096348;23;92371;-76
2023/04/05 00:35:04;;;;;;;10.45;6.72;;;2.40;99.90;;;;;;6068254;23;96744;-76
2023/04/05 00:37:31;;;;;;;12.98;6.20;;;2.40;99.90;;;;;;6096060;23;95458;-76
2023/04/05 00:39:58;;;;;;;9.57;6.10;;;2.40;99.90;;;;;;6069813;23;92554;-76
2023/04/05 00:42:25;;;;;;;10.55;6.60;;;2.30;99.90;;;;;;6045947;23;92455;-76
2023/04/05 00:44:52;;;;;;;10.70;6.32;;;2.30;99.90;;;;;;6069435;23;95736;-76
2023/04/05 00:47:20;;;;;;;11.80;6.90;;;2.30;99.90;;;;;;6096117;23;93012;-76
2023/04/05 00:49:48;;;;;;;10.75;6.22;;;2.20;99.90;;;;;;6069928;23;92529;-76
2023/04/05 00:52:18;;;;;;;9.02;5.45;;;2.20;99.90;;;;;;6070178;23;91743;-76
2023/04/05 00:54:45;;;;;;;9.07;6.30;;;2.20;99.90;;;;;;6069531;23;95667;-76
2023/04/05 00:57:13;;;;;;;11.40;6.60;;;2.20;99.90;;;;;;6095747;23;92436;-76
2023/04/05 00:59:41;;;;;;;12.60;6.90;;;2.10;99.90;;;;;;6044542;23;95361;-76
2023/04/05 01:02:24;;;;;;;9.63;6.40;;;2.10;99.90;;;;;;6069812;23;92440;-76
2023/04/05 01:04:59;;;;;;;9.03;6.43;;;2.10;99.90;;;;;;6069922;23;94120;-76
2023/04/05 01:07:43;;;;;;;11.45;6.60;;;2.10;99.90;;;;;;6070150;23;95729;-76
2023/04/05 01:10:13;;;;;;;9.60;6.95;;;2.10;99.90;;;;;;6095948;23;92422;-76
2023/04/05 01:12:41;;;;;;;10.48;6.55;;;2.00;99.90;;;;;;6094349;23;92578;-76
2023/04/05 01:15:08;;;;;;;12.57;7.00;;;2.00;99.90;;;;;;6045437;23;93129;-76
2023/04/05 01:17:38;;;;;;;10.18;6.10;;;2.00;99.90;;;;;;6070059;23;95702;-76
2023/04/05 01:20:11;;;;;;;11.63;6.50;;;2.00;99.90;;;;;;6045936;23;92451;-76
2023/04/05 01:22:47;;;;;;;9.90;6.30;;;1.90;99.90;;;;;;6070349;23;92408;-76
2023/04/05 01:25:38;;;;;;;8.88;6.20;;;1.90;99.90;;;;;;6068033;23;98207;-76
2023/04/05 01:28:26;;;;;;;9.80;6.68;;;1.90;99.90;;;;;;6096036;23;95272;-76
2023/04/05 01:31:16;;;;;;;10.23;6.47;;;1.90;99.90;;;;;;6069743;23;92432;-76
2023/04/05 01:34:12;;;;;;;11.75;6.88;;;1.90;99.90;;;;;;6096155;23;92400;-76
2023/04/05 01:36:40;;;;;;;8.30;6.32;;;1.80;99.90;;;;;;6069746;23;95636;-76
2023/04/05 01:39:10;;;;;;;10.00;6.18;;;1.80;99.90;;;;;;6069001;23;95473;-76
2023/04/05 01:41:39;;;;;;;12.02;7.07;;;1.80;99.90;;;;;;6069217;23;92500;-76
2023/04/05 01:44:06;;;;;;;9.38;6.93;;;1.80;99.90;;;;;;6069710;23;91655;-76
2023/04/05 01:46:33;;;;;;;13.90;7.05;;;1.70;99.90;;;;;;6095897;23;93143;-76
2023/04/05 01:49:00;;;;;;;10.48;6.25;;;1.70;99.90;;;;;;6069099;23;95016;-76
2023/04/05 01:51:27;;;;;;;9.57;7.30;;;1.70;99.90;;;;;;6094764;23;94820;-76
2023/04/05 01:53:54;;;;;;;11.07;7.25;;;1.70;99.90;;;;;;6096046;23;92442;-76
2023/04/05 01:56:21;;;;;;;12.65;7.57;;;1.70;99.90;;;;;;6045110;23;95922;-76
2023/04/05 01:58:48;;;;;;;12.70;7.03;;;1.70;99.90;;;;;;6045372;23;95503;-76
2023/04/05 02:01:15;;;;;;;16.67;7.68;;;1.60;99.90;;;;;;6069574;23;92885;-77
2023/04/05 02:03:42;;;;;;;13.40;7.18;;;1.60;99.90;;;;;;6045589;23;92500;-76
2023/04/05 02:06:10;;;;;;;14.88;7.03;;;1.60;99.90;;;;;;6045027;23;95710;-76
2023/04/05 02:08:37;;;;;;;11.70;7.20;;;1.60;99.90;;;;;;6069800;23;95423;-76
2023/04/05 02:11:03;;;;;;;10.75;7.28;;;1.60;99.90;;;;;;6045252;23;92445;-76
2023/04/05 02:13:30;;;;;;;13.60;7.40;;;1.60;99.90;;;;;;6069402;23;92468;-76
2023/04/05 02:15:57;;;;;;;11.20;7.63;;;1.50;99.90;;;;;;6068050;23;98334;-76
2023/04/05 02:18:28;;;;;;;12.95;7.65;;;1.50;99.90;;;;;;6095543;23;95203;-76
2023/04/05 02:21:07;;;;;;;12.23;8.38;;;1.50;99.90;;;;;;6069891;23;92474;-76
2023/04/05 02:23:36;;;;;;;12.20;8.05;;;1.50;99.90;;;;;;6095900;23;92424;-76
2023/04/05 02:26:04;;;;;;;12.80;7.97;;;1.50;99.90;;;;;;6095293;23;93277;-76
2023/04/05 02:28:31;;;;;;;13.55;7.80;;;1.50;99.90;;;;;;6069295;23;95516;-76
2023/04/05 02:30:58;;;;;;;13.43;7.60;;;1.50;99.90;;;;;;6069138;23;97869;-76
2023/04/05 02:33:26;;;;;;;12.73;7.82;;;1.40;99.90;;;;;;6021838;23;92189;-76
2023/04/05 02:35:55;;;;;;;13.27;8.40;;;1.40;99.90;;;;;;6095686;23;93082;-76
2023/04/05 02:38:22;;;;;;;13.90;7.38;;;1.40;99.90;;;;;;6095410;23;92936;-76
2023/04/05 02:40:48;;;;;;;12.07;8.55;;;1.40;99.90;;;;;;6068114;23;94924;-76
2023/04/05 02:43:16;;;;;;;11.60;7.40;;;1.40;99.90;;;;;;6069194;23;92448;-76
2023/04/05 02:45:43;;;;;;;13.80;8.45;;;1.40;99.90;;;;;;6044832;23;95706;-76
2023/04/05 02:48:13;;;;;;;12.68;8.65;;;1.30;99.90;;;;;;6045075;23;95346;-76
2023/04/05 02:50:40;;;;;;;12.45;8.73;;;1.30;99.90;;;;;;6069333;23;92344;-76
2023/04/05 02:53:07;;;;;;;16.02;8.48;;;1.30;99.90;;;;;;6069086;23;92485;-76
2023/04/05 02:55:34;;;;;;;12.13;8.18;;;1.30;99.90;;;;;;6069269;23;95697;-76
2023/04/05 02:58:01;;;;;;;15.90;8.82;;;1.30;99.90;;;;;;6069517;23;95344;-76
2023/04/05 03:00:37;;;;;;;16.52;8.82;;;1.30;99.90;;;;;;6046830;23;92520;-76
2023/04/05 03:03:04;;;;;;;14.02;9.27;;;1.20;99.90;;;;;;6069524;23;92987;-76
2023/04/05 03:05:33;;;;;;;14.43;8.70;;;1.20;99.90;;;;;;6068303;23;95526;-76
2023/04/05 03:08:01;;;;;;;16.40;9.48;;;1.20;99.90;;;;;;6069170;23;97917;-77
2023/04/05 03:10:34;;;;;;;11.57;8.68;;;1.20;99.90;;;;;;6069238;23;92354;-76
2023/04/05 03:13:10;;;;;;;19.13;9.88;;;1.20;99.90;;;;;;6068715;23;92548;-76
2023/04/05 03:15:37;;;;;;;14.85;8.98;;;1.10;99.90;;;;;;6069826;23;92475;-76
2023/04/05 03:18:09;;;;;;;16.83;9.85;;;1.10;99.90;;;;;;6046027;23;95541;-76
2023/04/05 03:20:39;;;;;;;20.23;11.02;;;1.10;99.90;;;;;;6069460;23;92535;-76
2023/04/05 03:23:12;;;;;;;16.63;10.60;;;1.10;99.90;;;;;;6068628;23;91813;-76
2023/04/05 03:25:40;;;;;;;14.98;9.27;;;1.10;99.90;;;;;;6068319;23;95229;-76
2023/04/05 03:28:08;;;;;;;15.35;9.93;;;1.10;99.90;;;;;;6069689;23;95604;-76
2023/04/05 03:30:39;;;;;;;16.50;9.70;;;1.10;99.90;;;;;;6068136;23;94959;-76
2023/04/05 03:33:15;;;;;;;20.92;9.98;;;1.10;99.90;;;;;;6069481;23;92414;-76
2023/04/05 03:35:45;;;;;;;16.40;10.10;;;1.10;99.90;;;;;;6044479;23;96330;-77
2023/04/05 03:38:13;;;;;;;15.63;9.82;;;1.10;99.90;;;;;;6044115;23;95506;-76
2023/04/05 03:40:58;;;;;;;18.58;10.43;;;1.10;99.90;;;;;;6095599;23;92392;-76
2023/04/05 03:43:26;;;;;;;17.50;9.32;;;1.10;99.90;;;;;;6068268;23;92528;-76
2023/04/05 03:45:53;;;;;;;17.58;10.18;;;1.10;99.90;;;;;;6044763;23;95962;-76
2023/04/05 03:48:20;;;;;;;16.65;10.10;;;1.10;99.90;;;;;;6068372;23;95511;-76
2023/04/05 03:50:48;;;;;;;15.57;10.38;;;1.10;99.90;;;;;;6068409;23;92987;-76
2023/04/05 03:53:16;;;;;;;19.48;11.00;;;1.10;99.90;;;;;;6044126;23;92524;-76
2023/04/05 03:55:49;;;;;;;17.27;10.25;;;1.10;99.90;;;;;;6093041;23;94796;-76
2023/04/05 03:58:19;;;;;;;17.35;11.48;;;1.10;99.90;;;;;;6068085;23;98091;-76
2023/04/05 04:00:46;;;;;;;17.98;11.85;;;1.10;99.90;;;;;;6068410;23;92501;-76
2023/04/05 04:03:18;;;;;;;17.05;11.00;;;1.00;99.90;;;;;;6045111;23;92506;-76
2023/04/05 04:05:48;;;;;;;16.77;10.98;;;1.00;99.90;;;;;;6022759;23;95546;-76
2023/04/05 04:08:16;;;;;;;17.85;11.18;;;1.00;99.90;;;;;;6045064;23;94507;-76
2023/04/05 04:10:43;;;;;;;17.27;11.23;;;1.00;99.90;;;;;;6069644;23;92406;-76
2023/04/05 04:13:18;;;;;;;15.10;12.10;;;1.00;99.90;;;;;;6069721;23;91752;-76
2023/04/05 04:15:49;;;;;;;17.85;11.35;;;1.00;99.90;;;;;;6046258;23;95458;-76
2023/04/05 04:18:35;;;;;;;20.50;11.60;;;0.90;99.90;;;;;;6073636;23;92461;-77
2023/04/05 04:21:12;;;;;;;17.63;11.88;;;0.90;99.90;;;;;;6070519;23;94743;-76
2023/04/05 04:23:56;;;;;;;;;;;0.90;99.90;;;;;;6070221;23;92479;-76
2023/04/05 04:26:53;;;;;;;20.08;11.98;;;0.80;99.90;;;;;;6083898;23;92937;-76
2023/04/05 04:29:45;;;;;;;16.13;11.70;;;0.80;99.90;;;;;;6069218;23;95612;-77
2023/04/05 04:35:45;;;;;;;16.73;12.77;;;0.80;99.90;;;;;;6082016;23;93555;-76
2023/04/05 04:38:33;;;;;;;17.48;11.68;;;0.80;99.90;;;;;;6095380;23;92767;-76
2023/04/05 04:41:21;;;;;;;22.38;12.07;;;0.70;99.90;;;;;;6095978;23;92601;-76
2023/04/05 04:44:13;;;;;;;17.83;12.85;;;0.70;99.90;;;;;;6058702;23;92797;-76
2023/04/05 04:47:12;;;;;;;18.63;12.95;;;0.70;99.90;;;;;;6061136;23;92964;-76
2023/04/05 04:50:18;;;;;;;18.70;12.60;;;0.70;99.90;;;;;;6069506;23;96390;-76
2023/04/05 04:52:46;;;;;;;20.80;13.40;;;0.70;99.90;;;;;;6095297;23;95985;-76
2023/04/05 04:55:13;;;;;;;22.02;13.35;;;0.70;99.90;;;;;;6069674;23;92933;-76
2023/04/05 04:57:41;;;;;;;22.60;14.18;;;0.70;99.90;;;;;;6069035;23;92493;-76
2023/04/05 05:00:14;;;;;;;20.98;12.70;;;0.70;99.90;;;;;;6095284;23;94835;-76
2023/04/05 05:02:42;;;;;;;21.58;12.57;;;0.70;99.90;;;;;;6069500;23;93105;-77
2023/04/05 05:05:13;;;;;;;20.13;13.68;;;0.80;99.90;;;;;;6069502;23;93048;-77
2023/04/05 05:07:41;;;;;;;21.58;13.68;;;0.70;99.90;;;;;;6069872;23;91701;-77
2023/04/05 05:10:11;;;;;;;18.95;13.13;;;0.70;99.90;;;;;;6021729;23;93747;-77
2023/04/05 05:12:38;;;;;;;23.05;13.18;;;0.80;99.90;;;;;;6095311;23;92955;-77
2023/04/05 05:15:05;;;;;;;19.65;13.85;;;0.80;99.90;;;;;;6043766;23;95308;-77
2023/04/05 05:17:34;;;;;;;19.80;13.68;;;0.80;99.90;;;;;;6069709;23;92551;-77
2023/04/05 05:20:03;;;;;;;22.83;13.43;;;0.80;99.90;;;;;;6068654;23;104620;-76
2023/04/05 05:22:30;;;;;;;19.10;13.98;;;0.90;99.90;;;;;;6095034;23;92328;-77
2023/04/05 05:24:57;;;;;;;20.17;12.60;;;0.90;99.90;;;;;;6045082;23;92472;-77
2023/04/05 05:27:25;;;;;;;17.33;12.45;;;1.00;99.90;;;;;;6069079;23;92484;-76
2023/04/05 05:29:52;;;;;;;16.80;12.80;;;1.00;99.90;;;;;;6068947;23;95837;-77
2023/04/05 05:32:19;;;;;;;20.17;12.68;;;1.00;99.90;;;;;;6069851;23;93165;-77
2023/04/05 05:34:47;;;;;;;21.30;12.25;;;1.10;99.90;;;;;;6069169;23;93174;-77
2023/04/05 05:37:15;;;;;;;18.05;12.43;;;1.10;99.90;;;;;;6069623;23;92524;-77
2023/04/05 05:39:46;;;;;;;20.52;13.05;;;1.10;99.90;;;;;;6093557;23;95476;-77
2023/04/05 05:42:13;;;;;;;16.40;11.90;;;1.20;99.90;;;;;;6095393;23;95441;-77
2023/04/05 05:44:40;;;;;;;17.67;12.70;;;1.30;99.90;;;;;;6095143;23;92410;-77
2023/04/05 05:47:06;;;;;;;14.68;11.57;;;1.30;99.90;;;;;;6069095;23;92449;-77
2023/04/05 05:49:33;;;;;;;15.90;11.50;;;1.40;99.90;;;;;;6068688;23;95692;-77
2023/04/05 05:52:02;;;;;;;16.63;11.95;;;1.40;99.90;;;;;;6044695;23;107349;-77
2023/04/05 05:54:29;;;;;;;18.20;12.85;;;1.50;99.90;;;;;;6068820;23;92589;-77
2023/04/05 05:56:56;;;;;;;18.70;12.38;;;1.60;99.90;;;;;;6095894;23;91688;-77
2023/04/05 05:59:23;;;;;;;17.65;13.27;;;1.70;99.90;;;;;;6044702;23;95813;-77
2023/04/05 06:01:51;;;;;;;15.70;11.05;;;1.80;99.90;;;;;;6044322;23;94799;-77
2023/04/05 06:04:18;;;;;;;15.02;10.75;;;1.90;99.90;;;;;;6093943;23;94794;-76
2023/04/05 06:06:46;;;;;;;14.50;11.20;;;2.10;99.90;;;;;;6069388;23;93059;-76
2023/04/05 06:09:14;;;;;;;13.85;11.10;;;2.40;99.90;;;;;;6095098;23;93455;-77
2023/04/05 06:11:41;;;;;;;14.52;10.85;;;2.60;99.90;;;;;;6068926;23;92665;-77
2023/04/05 06:14:19;;;;;;;12.82;9.45;;;2.80;99.90;;;;;;6064159;23;92485;-77
2023/04/05 06:16:46;;;;;;;14.20;9.23;;;3.10;99.90;;;;;;6066467;23;92473;-77
2023/04/05 06:19:14;;;;;;;9.98;8.52;;;3.50;99.90;;;;;;6064595;23;96514;-77
2023/04/05 06:21:41;;;;;;;10.52;8.18;;;4.30;99.90;;;;;;6066507;23;93125;-77
2023/04/05 06:24:08;;;;;;;10.93;7.60;;;5.20;99.90;;;;;;6064578;23;97792;-76
2023/04/05 06:26:35;;;;;;;10.45;7.72;;;6.00;99.90;;;;;;6088663;23;92510;-76
2023/04/05 06:29:01;;;;;;;9.50;8.23;;;6.70;99.90;;;;;;6087817;23;95325;-76
2023/04/05 06:31:34;;;;;;;9.15;7.95;;;7.30;99.90;;;;;;6064677;23;98156;-76
2023/04/05 06:34:01;;;;;;;11.30;8.32;;;7.80;99.90;;;;;;6066759;23;92397;-76
2023/04/05 06:36:32;;;;;;;8.80;7.88;;;8.10;99.90;;;;;;6064700;23;92547;-76
2023/04/05 06:39:00;;;;;;;9.77;8.32;;;8.60;99.90;;;;;;6066344;23;93255;-76
2023/04/05 06:41:27;;;;;;;9.20;7.80;;;9.00;99.90;;;;;;6064614;23;95896;-76
2023/04/05 06:43:55;;;;;;;10.00;8.20;;;9.60;99.50;;;;;;6089175;23;92370;-76
2023/04/05 06:46:23;;;;;;;9.70;8.73;;;10.00;98.20;;;;;;6064878;23;91778;-76
2023/04/05 06:48:51;;;;;;;11.63;8.90;;;10.20;97.00;;;;;;6088535;23;94122;-76
2023/04/05 06:51:18;;;;;;;11.63;7.55;;;10.20;96.40;;;;;;6065965;23;92818;-76
2023/04/05 06:53:45;;;;;;;10.18;8.25;;;10.20;96.60;;;;;;6064785;23;95299;-76
2023/04/05 06:56:12;;;;;;;9.95;8.07;;;10.30;96.90;;;;;;6089326;23;92400;-75
2023/04/05 06:58:39;;;;;;;8.43;7.55;;;10.60;96.10;;;;;;6065930;23;92981;-76
2023/04/05 07:01:06;;;;;;;9.48;7.18;;;11.00;95.50;;;;;;6066186;23;93005;-76
2023/04/05 07:03:33;;;;;;;9.10;7.55;;;11.20;94.80;;;;;;6089160;23;93001;-75
2023/04/05 07:06:01;;;;;;;11.23;8.43;;;11.40;94.10;;;;;;6088874;23;92400;-75
2023/04/05 07:08:30;;;;;;;9.88;8.20;;;11.40;93.80;;;;;;6088811;23;92923;-75
2023/04/05 07:10:57;;;;;;;9.00;8.10;;;11.40;93.40;;;;;;6064229;23;95827;-75
2023/04/05 07:13:25;;;;;;;8.20;7.35;;;11.30;93.30;;;;;;6067737;23;92298;-75
2023/04/05 07:15:58;;;;;;;8.85;7.95;;;11.30;93.20;;;;;;6095790;23;92764;-75
2023/04/05 07:18:25;;;;;;;12.02;8.90;;;11.40;93.20;;;;;;6068262;23;95681;-76
2023/04/05 07:20:58;;;;;;;8.50;7.35;;;11.50;92.70;;;;;;6094139;23;95365;-76
2023/04/05 07:23:26;;;;;;;7.40;6.70;;;11.60;92.20;;;;;;6095905;23;92314;-75
2023/04/05 07:25:58;;;;;;;8.05;7.32;;;11.70;91.60;;;;;;6095292;23;92404;-76
2023/04/05 07:28:25;;;;;;;7.55;6.60;;;12.00;91.50;;;;;;6069242;23;94211;-76
2023/04/05 07:30:51;;;;;;;8.25;6.72;;;12.00;91.30;;;;;;6044897;23;95523;-76
2023/04/05 07:33:19;;;;;;;9.02;7.32;;;12.20;91.00;;;;;;6095580;23;92402;-76
2023/04/05 07:35:55;;;;;;;7.78;7.05;;;12.50;90.90;;;;;;6045945;23;91681;-76
2023/04/05 07:38:22;;;;;;;8.45;7.25;;;13.00;90.40;;;;;;6094633;23;93089;-76
2023/04/05 07:40:50;;;;;;;7.40;6.70;;;13.30;89.30;;;;;;6095208;23;93050;-76
2023/04/05 07:43:20;;;;;;;7.60;6.47;;;13.70;87.00;;;;;;6043618;23;95564;-77
2023/04/05 07:45:47;;;;;;;8.13;7.38;;;14.10;84.50;;;;;;6095213;23;92425;-77
2023/04/05 07:48:14;;;;;;;7.68;6.40;;;14.30;83.50;;;;;;6069267;23;93356;-76
2023/04/05 07:50:46;;;;;;;7.97;6.47;;;14.60;81.90;;;;;;6069491;23;92703;-76
2023/04/05 07:53:13;;;;;;;7.30;6.05;;;14.80;80.80;;;;;;6095913;23;92830;-76
2023/04/05 07:55:41;;;;;;;7.45;6.70;;;15.00;78.60;;;;;;6094924;23;98092;-76
2023/04/05 07:58:09;;;;;;;8.52;7.38;;;15.20;77.40;;;;;;6068384;23;97391;-76
2023/04/05 08:00:38;;;;;;;12.40;9.85;;;15.50;76.40;;;;;;6095678;23;93127;-76
2023/04/05 08:03:26;;;;;;;8.98;7.22;;;16.00;74.20;;;;;;6067284;23;92596;-76
2023/04/05 08:05:53;;;;;;;8.50;7.80;;;16.50;72.60;;;;;;6068660;23;92536;-76
2023/04/05 08:08:21;;;;;;;7.47;6.82;;;17.20;70.20;;;;;;6067518;23;95704;-76
2023/04/05 08:10:48;;;;;;;7.80;7.20;;;17.60;67.10;;;;;;6094652;23;95354;-77
2023/04/05 08:13:15;;;;;;;7.68;7.07;;;18.00;65.50;;;;;;6095381;23;92327;-76
2023/04/05 08:15:42;;;;;;;8.88;8.07;;;18.10;63.80;;;;;;6095310;23;92674;-77
2023/04/05 08:18:09;;;;;;;8.38;7.68;;;18.40;63.30;;;;;;6068849;23;93009;-76
2023/04/05 08:20:38;;;;;;;8.02;7.43;;;18.80;62.00;;;;;;6068666;23;95602;-77
2023/04/05 08:23:05;;;;;;;8.05;7.35;;;19.00;59.70;;;;;;6069418;23;92450;-77
2023/04/05 08:25:33;;;;;;;8.57;7.78;;;19.30;58.90;;;;;;6095482;23;91734;-77
2023/04/05 08:28:00;;;;;;;9.13;8.32;;;19.40;58.80;;;;;;6094532;23;92422;-77
2023/04/05 08:30:27;;;;;;;8.30;7.60;;;19.40;57.80;;;;;;6069086;23;92973;-77
2023/04/05 08:32:54;;;;;;;10.10;7.45;;;19.40;56.30;;;;;;6093314;23;94756;-76
2023/04/05 08:35:21;;;;;;;9.00;8.30;;;19.40;56.20;;;;;;6044525;23;92398;-77
2023/04/05 08:37:47;;;;;;;8.73;8.10;;;19.20;57.10;;;;;;6094693;23;93191;-76
2023/04/05 08:40:15;;;;;;;6.53;5.28;;;19.10;56.70;;;;;;6094433;23;94282;-76
2023/04/05 08:43:07;;;;;;;6.43;5.80;;;18.90;55.90;;;;;;6094932;23;92442;-76
2023/04/05 08:45:41;;;;;;;8.13;5.15;;;18.70;55.40;;;;;;6095103;23;92501;-77
2023/04/05 08:48:08;;;;;;;6.25;5.65;;;18.30;56.20;;;;;;6068590;23;93158;-76
2023/04/05 08:50:35;;;;;;;6.18;5.57;;;17.80;55.80;;;;;;6096187;23;91660;-76
2023/04/05 08:53:02;;;;;;;6.28;5.32;;;17.20;55.60;;;;;;6096256;23;92651;-76
2023/04/05 08:55:29;;;;;;;6.25;5.65;;;16.60;57.20;;;;;;6070490;23;92499;-77
2023/04/05 08:57:59;;;;;;;5.18;4.53;;;15.90;58.00;;;;;;6094357;23;95755;-76
2023/04/05 09:00:27;;;;;;;10.15;5.53;;;15.30;58.30;;;;;;6069833;23;96562;-77
2023/04/05 09:02:57;;;;;;;4.95;4.15;;;14.70;60.20;;;;;;6070356;23;92738;-76
2023/04/05 09:05:25;;;;;;;5.28;4.35;;;14.10;59.00;;;;;;6096342;23;92381;-76
2023/04/05 09:07:52;;;;;;;4.20;3.80;;;13.60;60.90;;;;;;6044961;23;111285;-75
2023/04/05 09:10:20;;;;;;;5.82;4.05;;;13.10;60.80;;;;;;6070242;23;93048;-77
2023/04/05 09:12:49;;;;;;;5.88;4.55;;;12.90;60.80;;;;;;6046044;23;92960;-76
2023/04/05 09:15:23;;;;;;;4.85;3.95;;;12.50;61.60;;;;;;6096162;23;91604;-76
2023/04/05 09:17:51;;;;;;;5.30;3.50;;;12.20;62.80;;;;;;6069965;23;97369;-76
2023/04/05 09:20:18;;;;;;;6.10;4.15;;;11.90;62.90;;;;;;6095761;23;92747;-76
2023/04/05 09:22:45;;;;;;;4.22;3.20;;;11.80;63.80;;;;;;6094886;23;94719;-76
2023/04/05 09:25:38;;;;;;;5.25;3.38;;;11.70;63.20;;;;;;6046211;23;92495;-76
2023/04/05 09:28:06;;;;;;;4.20;3.38;;;11.70;63.20;;;;;;6045290;23;96146;-76
2023/04/05 09:30:34;;;;;;;4.80;3.88;;;11.50;64.60;;;;;;6021837;23;95684;-76
2023/04/05 09:33:03;;;;;;;4.82;3.72;;;11.50;64.30;;;;;;6069572;23;92471;-76
2023/04/05 09:35:31;;;;;;;4.57;3.58;;;11.50;65.00;;;;;;6070295;23;92430;-76
2023/04/05 09:38:00;;;;;;;4.45;3.25;;;11.60;64.60;;;;;;6070206;23;93117;-76
2023/04/05 09:40:41;;;;;;;4.60;3.45;;;11.60;63.60;;;;;;6070252;23;95170;-76
2023/04/05 09:43:10;;;;;;;4.90;3.05;;;11.70;62.90;;;;;;6070196;23;92982;-76
2023/04/05 09:45:41;;;;;;;6.40;3.88;;;11.40;62.90;;;;;;6096267;23;92391;-76
2023/04/05 09:48:09;;;;;;;4.63;3.33;;;11.30;63.60;;;;;;6068481;23;95654;-76
2023/04/05 09:50:36;;;;;;;6.88;3.65;;;11.30;64.00;;;;;;6069901;23;94269;-76
2023/04/05 09:53:18;;;;;;;5.68;3.55;;;11.30;65.10;;;;;;6045776;23;92409;-76
2023/04/05 09:55:48;;;;;;;6.07;3.50;;;11.40;64.40;;;;;;6046461;23;92404;-76
2023/04/05 09:58:20;;;;;;;4.72;3.85;;;11.40;65.10;;;;;;6095533;23;93209;-76
2023/04/05 10:00:53;;;;;;;5.57;4.03;;;11.50;65.20;;;;;;6095231;23;93049;-76
2023/04/05 10:03:46;;;;;;;4.97;3.70;;;11.60;65.00;;;;;;6073397;23;92419;-76
2023/04/05 10:06:15;;;;;;;8.75;4.20;;;11.90;64.50;;;;;;6070153;23;91756;-76
2023/04/05 10:08:43;;;;;;;4.43;4.00;;;11.80;65.80;;;;;;6068893;23;101747;-76
2023/04/05 10:11:12;;;;;;;6.55;4.50;;;12.00;65.80;;;;;;6095659;23;93373;-76
2023/04/05 10:13:40;;;;;;;5.18;3.85;;;12.10;64.50;;;;;;6067903;23;94800;-77
2023/04/05 10:16:12;;;;;;;5.47;3.78;;;12.10;64.50;;;;;;6096163;23;93002;-76
2023/04/05 10:18:48;;;;;;;6.03;4.00;;;12.30;64.30;;;;;;6095889;23;93309;-76
2023/04/05 10:21:21;;;;;;;5.55;4.03;;;12.30;63.10;;;;;;6095573;23;92946;-76
2023/04/05 10:24:08;;;;;;;4.55;4.07;;;12.30;63.50;;;;;;6096119;23;92292;-76
2023/04/05 10:26:39;;;;;;;4.80;3.72;;;12.40;61.80;;;;;;6045796;23;92972;-76
2023/04/05 10:29:15;;;;;;;4.18;3.78;;;12.30;62.50;;;;;;6045226;23;95996;-76
2023/04/05 10:31:54;;;;;;;5.43;3.10;;;12.20;61.20;;;;;;6070061;23;97039;-76
2023/04/05 10:35:19;;;;;;;4.05;3.50;;;12.00;61.10;;;;;;6095731;23;92426;-76
2023/04/05 10:38:22;;;;;;;3.40;3.00;;;11.70;61.30;;;;;;5981743;23;92678;-76
2023/04/05 10:40:54;;;;;;;4.07;3.25;;;11.70;62.10;;;;;;6094010;23;99761;-76
2023/04/05 10:43:24;;;;;;;5.95;3.88;;;11.70;62.60;;;;;;6044978;23;97832;-76
2023/04/05 10:45:53;;;;;;;5.47;3.67;;;11.70;62.10;;;;;;6096291;23;92933;-76
2023/04/05 10:48:45;;;;;;;4.18;3.67;;;11.80;62.90;;;;;;6095483;23;92474;-76
2023/04/05 10:51:13;;;;;;;4.80;3.35;;;12.00;63.50;;;;;;6069514;23;93142;-76
2023/04/05 10:53:40;;;;;;;4.70;3.25;;;12.20;62.10;;;;;;6069697;23;94000;-76
2023/04/05 10:56:07;;;;;;;5.30;3.10;;;12.30;62.50;;;;;;6070124;23;92312;-76
2023/04/05 10:58:36;;;;;;;4.05;3.67;;;12.50;62.90;;;;;;6045818;23;91851;-76
2023/04/05 11:01:03;;;;;;;8.32;4.25;;;12.60;60.90;;;;;;6095508;23;93192;-77
2023/04/05 11:03:50;;;;;;;3.97;3.63;;;12.60;61.10;;;;;;6068727;23;93867;-76
2023/04/05 11:06:30;;;;;;;4.72;3.75;;;12.70;61.70;;;;;;6068018;23;95442;-77
2023/04/05 11:09:09;;;;;;;6.60;4.10;;;12.70;62.10;;;;;;6069494;23;92460;-76
2023/04/05 11:11:41;;;;;;;5.63;3.63;;;12.80;61.50;;;;;;6095568;23;93144;-77
2023/04/05 11:14:35;;;;;;;4.78;3.85;;;12.80;61.40;;;;;;6095049;23;92894;-77
2023/04/05 11:17:02;;;;;;;6.10;3.97;;;12.80;59.80;;;;;;6093696;23;92397;-76
2023/04/05 11:19:42;;;;;;;6.15;4.20;;;12.60;59.70;;;;;;6045368;23;92407;-77
2023/04/05 11:22:09;;;;;;;3.88;3.33;;;12.50;58.60;;;;;;6095523;23;93268;-77
2023/04/05 11:24:55;;;;;;;5.43;4.00;;;12.30;60.80;;;;;;6095983;23;91920;-77
2023/04/05 11:27:27;;;;;;;5.38;3.85;;;12.30;60.60;;;;;;6069959;23;92430;-77
2023/04/05 11:29:55;;;;;;;6.28;3.60;;;12.40;61.90;;;;;;6095651;23;92401;-76
2023/04/05 11:32:23;;;;;;;4.97;4.07;;;12.50;60.90;;;;;;6067368;23;98162;-77
2023/04/05 11:34:59;;;;;;;4.10;3.67;;;12.60;60.10;;;;;;6068990;23;98161;-77
2023/04/05 11:37:59;;;;;;;4.78;4.13;;;12.70;59.80;;;;;;6069510;23;92361;-77
2023/04/05 11:40:31;;;;;;;4.07;3.50;;;12.70;60.40;;;;;;6069386;23;92489;-77
2023/04/05 11:43:08;;;;;;;4.90;3.75;;;12.80;60.20;;;;;;6095350;23;95235;-77
2023/04/05 11:45:38;;;;;;;4.50;4.10;;;12.90;60.00;;;;;;6095113;23;92871;-77
2023/04/05 11:48:07;;;;;;;5.93;3.85;;;13.00;59.90;;;;;;6044891;23;92404;-77
2023/04/05 11:50:37;;;;;;;5.05;3.83;;;13.10;59.20;;;;;;6069264;23;91810;-77
2023/04/05 11:53:07;;;;;;;4.55;4.07;;;13.10;58.20;;;;;;6069318;23;92433;-77
2023/04/05 11:55:34;;;;;;;4.50;3.63;;;13.30;58.70;;;;;;6069129;23;92886;-77
2023/04/05 11:58:01;;;;;;;6.13;3.95;;;13.40;58.30;;;;;;6093939;23;94845;-77
2023/04/05 12:00:28;;;;;;;4.15;3.75;;;13.50;56.90;;;;;;6094538;23;92826;-77
2023/04/05 12:02:55;;;;;;;5.00;4.07;;;13.40;57.20;;;;;;6069232;23;93088;-77
2023/04/05 12:05:23;;;;;;;4.55;4.15;;;13.40;58.60;;;;;;6068323;23;98505;-77
2023/04/05 12:07:53;;;;;;;6.30;4.20;;;13.50;59.30;;;;;;6068904;23;92541;-77
2023/04/05 12:10:20;;;;;;;6.15;4.38;;;13.50;58.00;;;;;;6069380;23;92391;-77
2023/04/05 12:12:47;;;;;;;5.38;4.50;;;13.40;58.10;;;;;;6045109;23;92366;-77
2023/04/05 12:15:17;;;;;;;5.30;4.30;;;13.40;57.70;;;;;;6044785;23;95680;-77
2023/04/05 12:17:48;;;;;;;4.32;3.90;;;13.50;57.40;;;;;;6069046;23;92959;-77
2023/04/05 12:20:18;;;;;;;5.90;4.13;;;13.40;59.30;;;;;;6095118;23;92466;-77
2023/04/05 12:22:49;;;;;;;5.05;3.88;;;13.50;58.00;;;;;;6067199;23;98073;-77
2023/04/05 12:25:18;;;;;;;4.32;3.92;;;13.60;57.90;;;;;;6069766;23;95317;-77
2023/04/05 12:27:45;;;;;;;6.95;4.10;;;13.70;57.70;;;;;;6045446;23;98467;-77
2023/04/05 12:30:21;;;;;;;5.72;4.10;;;13.80;57.90;;;;;;6096265;23;92329;-77
2023/04/05 12:32:55;;;;;;;6.03;3.67;;;13.70;57.80;;;;;;6096249;23;93567;-77
2023/04/05 12:35:31;;;;;;;5.28;4.30;;;13.50;56.60;;;;;;6069717;23;95442;-77
2023/04/05 12:37:59;;;;;;;6.72;4.88;;;13.30;56.80;;;;;;6096495;23;92363;-77
2023/04/05 12:40:29;;;;;;;6.53;4.57;;;13.20;57.40;;;;;;6070111;23;92412;-77
2023/04/05 12:43:06;;;;;;;5.68;3.95;;;13.20;58.50;;;;;;6096087;23;93124;-77
2023/04/05 12:45:40;;;;;;;4.88;4.40;;;13.30;57.70;;;;;;6095970;23;93031;-77
2023/04/05 12:48:14;;;;;;;4.70;4.30;;;13.30;57.90;;;;;;6095078;23;94772;-77
2023/04/05 12:50:43;;;;;;;5.60;4.07;;;13.40;59.80;;;;;;6096040;23;92332;-77
2023/04/05 12:53:17;;;;;;;5.15;4.10;;;13.40;60.50;;;;;;6046337;23;93183;-77
2023/04/05 12:55:48;;;;;;;5.28;4.40;;;13.60;60.40;;;;;;6095850;23;92648;-77
2023/04/05 12:58:16;;;;;;;5.45;4.35;;;13.60;60.70;;;;;;6045684;23;92408;-77
2023/04/05 13:00:44;;;;;;;4.95;4.43;;;13.60;60.30;;;;;;6045533;23;92964;-77
2023/04/05 13:03:29;;;;;;;5.82;4.05;;;13.70;59.50;;;;;;6096067;23;93240;-77
2023/04/05 13:05:57;;;;;;;7.70;4.07;;;13.80;57.80;;;;;;6096536;23;92839;-77
2023/04/05 13:08:25;;;;;;;4.55;3.80;;;13.60;59.80;;;;;;6096158;23;92406;-77